Time;durP1;ratioP1;P1;durP2;ratioP2;P2;SDS_P1;SDS_P2;PMS_P1;PMS_P2;Temp;Humidity;BMP_temperature;BMP_pressure;BME280_temperature;BME280_humidity;BME280_pressure;Samples;Min_cycle;Max_cycle;Signal;HPM_P1;HPM_P2
2023/11/05 00:01:27;;;;;;;3.50;1.03;;;10.80;99.90;;;;;;5090889;28;20187;-64
2023/11/05 00:03:53;;;;;;;4.60;1.10;;;10.80;99.90;;;;;;5087613;28;20481;-63
2023/11/05 00:06:19;;;;;;;2.03;1.07;;;10.80;99.90;;;;;;5088301;28;20642;-63
2023/11/05 00:08:45;;;;;;;10.47;1.20;;;10.80;99.90;;;;;;5088679;28;20532;-64
2023/11/05 00:11:11;;;;;;;3.23;1.30;;;10.90;99.90;;;;;;5088440;28;20190;-63
2023/11/05 00:13:37;;;;;;;2.87;1.07;;;10.90;99.90;;;;;;5087580;28;21048;-62
2023/11/05 00:16:03;;;;;;;6.10;1.50;;;10.90;99.90;;;;;;5091109;28;20480;-64
2023/11/05 00:18:28;;;;;;;4.90;1.53;;;11.00;99.90;;;;;;5087897;28;20557;-64
2023/11/05 00:20:54;;;;;;;2.93;1.03;;;11.10;99.90;;;;;;5090098;28;20436;-63
2023/11/05 00:23:20;;;;;;;3.40;1.20;;;11.10;99.90;;;;;;5087256;28;20192;-64
2023/11/05 00:25:46;;;;;;;5.33;1.50;;;11.10;99.90;;;;;;5091376;28;20187;-63
2023/11/05 00:28:11;;;;;;;3.43;1.23;;;11.10;99.90;;;;;;5091648;28;20422;-64
2023/11/05 00:30:38;;;;;;;4.10;1.07;;;11.20;99.90;;;;;;5088945;28;20192;-63
2023/11/05 00:33:04;;;;;;;2.70;2.50;;;11.20;99.90;;;;;;5094294;28;20223;-63
2023/11/05 00:35:30;;;;;;;3.90;1.00;;;11.20;99.90;;;;;;5090953;28;20534;-64
2023/11/05 00:37:56;;;;;;;2.00;1.27;;;11.20;99.90;;;;;;5091968;28;20640;-64
2023/11/05 00:40:21;;;;;;;2.70;0.93;;;11.20;99.90;;;;;;5091123;28;20181;-64
2023/11/05 00:42:47;;;;;;;4.33;1.30;;;11.20;99.90;;;;;;5093203;28;20187;-63
2023/11/05 00:45:13;;;;;;;3.80;1.40;;;11.20;99.90;;;;;;5072938;28;20198;-62
2023/11/05 00:47:39;;;;;;;3.50;1.00;;;11.20;99.90;;;;;;5072904;28;20995;-64
2023/11/05 00:50:05;;;;;;;3.87;1.20;;;11.20;99.90;;;;;;5091475;28;20445;-64
2023/11/05 00:52:31;;;;;;;3.20;1.13;;;11.20;99.90;;;;;;5088121;28;20342;-64
2023/11/05 00:54:56;;;;;;;6.17;1.57;;;11.20;99.90;;;;;;5090613;28;21182;-63
2023/11/05 00:57:22;;;;;;;4.67;1.23;;;11.20;99.90;;;;;;5090330;28;20533;-64
2023/11/05 00:59:48;;;;;;;6.33;1.30;;;11.20;99.90;;;;;;5088460;28;20673;-64
2023/11/05 01:02:13;;;;;;;3.90;1.43;;;11.20;99.90;;;;;;5091045;28;20189;-64
2023/11/05 01:04:39;;;;;;;2.20;0.90;;;11.20;99.90;;;;;;5089808;28;20181;-64
2023/11/05 01:07:05;;;;;;;5.23;1.40;;;11.20;99.90;;;;;;5091291;28;20721;-63
2023/11/05 01:09:31;;;;;;;3.77;1.50;;;11.20;99.90;;;;;;5090235;28;20195;-63
2023/11/05 01:11:57;;;;;;;3.40;1.37;;;11.20;99.90;;;;;;5090836;28;20208;-63
2023/11/05 01:14:22;;;;;;;6.57;1.67;;;11.10;99.90;;;;;;5089546;28;20792;-63
2023/11/05 01:16:48;;;;;;;4.70;1.83;;;11.10;99.90;;;;;;5089793;28;20224;-63
2023/11/05 01:19:14;;;;;;;4.20;1.03;;;11.10;99.90;;;;;;5091468;28;20219;-62
2023/11/05 01:21:40;;;;;;;5.33;1.27;;;11.10;99.90;;;;;;5093414;28;20191;-64
2023/11/05 01:24:06;;;;;;;5.80;1.53;;;11.00;99.90;;;;;;5090126;28;20183;-63
2023/11/05 01:26:32;;;;;;;4.40;1.10;;;11.00;99.90;;;;;;5090610;28;20423;-63
2023/11/05 01:29:00;;;;;;;2.10;1.47;;;11.00;99.90;;;;;;5089521;28;20430;-62
2023/11/05 01:31:25;;;;;;;4.23;1.50;;;11.00;99.90;;;;;;5091908;28;20620;-62
2023/11/05 01:33:51;;;;;;;5.40;1.60;;;11.00;99.90;;;;;;5088680;28;20522;-64
2023/11/05 01:36:17;;;;;;;4.80;1.27;;;10.90;99.90;;;;;;5089126;28;20211;-65
2023/11/05 01:38:43;;;;;;;4.10;1.13;;;10.90;99.90;;;;;;5088937;28;20222;-63
2023/11/05 01:41:08;;;;;;;3.73;1.57;;;10.90;99.90;;;;;;5089991;28;20217;-63
2023/11/05 01:43:34;;;;;;;2.43;1.20;;;10.90;99.90;;;;;;5089520;28;20283;-63
2023/11/05 01:46:01;;;;;;;3.97;1.10;;;10.80;99.90;;;;;;5089651;28;20223;-63
2023/11/05 01:48:28;;;;;;;5.13;1.47;;;10.80;99.90;;;;;;5089589;28;20490;-62
2023/11/05 01:50:54;;;;;;;3.93;1.13;;;10.80;99.90;;;;;;5088317;28;21243;-63
2023/11/05 01:53:20;;;;;;;2.87;1.40;;;10.80;99.90;;;;;;5089091;28;20426;-64
2023/11/05 01:55:46;;;;;;;5.23;1.47;;;10.70;99.90;;;;;;5087008;28;20429;-64
2023/11/05 01:58:12;;;;;;;5.87;1.70;;;10.60;99.90;;;;;;5089556;28;20689;-62
2023/11/05 02:00:38;;;;;;;7.97;1.47;;;10.60;99.90;;;;;;5089538;28;21082;-63
2023/11/05 02:03:03;;;;;;;4.93;1.40;;;10.60;99.90;;;;;;5087722;28;20462;-63
2023/11/05 02:05:30;;;;;;;3.47;1.30;;;10.60;99.90;;;;;;5088184;28;20184;-63
2023/11/05 02:07:56;;;;;;;6.10;1.30;;;10.60;99.90;;;;;;5088860;28;20181;-63
2023/11/05 02:10:22;;;;;;;2.40;1.20;;;10.50;99.90;;;;;;5089829;28;20448;-62
2023/11/05 02:12:57;;;;;;;5.27;1.33;;;10.50;99.90;;;;;;5088691;28;20191;-64
2023/11/05 02:15:25;;;;;;;4.27;1.80;;;10.50;99.90;;;;;;5087231;28;20229;-62
2023/11/05 02:17:50;;;;;;;2.90;1.70;;;10.50;99.90;;;;;;5088935;28;20462;-64
2023/11/05 02:20:16;;;;;;;4.33;1.23;;;10.40;99.90;;;;;;5087938;28;20441;-63
2023/11/05 02:22:45;;;;;;;5.47;2.00;;;10.50;99.90;;;;;;5086470;28;20283;-64
2023/11/05 02:25:18;;;;;;;6.17;2.00;;;10.50;99.90;;;;;;5087673;28;20994;-64
2023/11/05 02:27:43;;;;;;;4.13;1.30;;;10.50;99.90;;;;;;5089517;28;20430;-63
2023/11/05 02:30:09;;;;;;;3.10;1.20;;;10.50;99.90;;;;;;5087200;28;20426;-64
2023/11/05 02:32:35;;;;;;;5.67;1.47;;;10.50;99.90;;;;;;5088767;28;20214;-62
2023/11/05 02:35:01;;;;;;;3.80;1.10;;;10.50;99.90;;;;;;5087518;28;20513;-64
2023/11/05 02:37:27;;;;;;;7.17;1.47;;;10.40;99.90;;;;;;5089022;28;20235;-64
2023/11/05 02:39:53;;;;;;;6.57;2.20;;;10.50;99.90;;;;;;5088361;28;20295;-62
2023/11/05 02:42:18;;;;;;;5.90;1.07;;;10.50;99.90;;;;;;5088057;28;20425;-63
2023/11/05 02:44:44;;;;;;;5.33;1.40;;;10.50;99.90;;;;;;5091539;28;20188;-62
2023/11/05 02:47:10;;;;;;;4.43;1.40;;;10.50;99.90;;;;;;5087966;28;20191;-63
2023/11/05 02:49:35;;;;;;;4.93;1.37;;;10.50;99.90;;;;;;5089161;28;20631;-62
2023/11/05 02:52:01;;;;;;;3.17;1.10;;;10.50;99.90;;;;;;5086486;28;20184;-63
2023/11/05 02:54:27;;;;;;;3.70;1.43;;;10.50;99.90;;;;;;5087618;28;20222;-61
2023/11/05 02:56:53;;;;;;;4.33;1.30;;;10.40;99.90;;;;;;5087855;28;20204;-63
2023/11/05 02:59:22;;;;;;;4.57;1.93;;;10.40;99.90;;;;;;5085616;28;20775;-62
2023/11/05 03:01:47;;;;;;;1.50;0.80;;;10.40;99.90;;;;;;5087818;28;20192;-63
2023/11/05 03:04:14;;;;;;;4.63;1.20;;;10.40;99.90;;;;;;5087033;28;21471;-64
2023/11/05 03:06:40;;;;;;;5.00;1.20;;;10.40;99.90;;;;;;5087704;28;20814;-62
2023/11/05 03:09:05;;;;;;;3.43;1.67;;;10.40;99.90;;;;;;5087600;28;20429;-62
2023/11/05 03:11:31;;;;;;;4.07;1.40;;;10.40;99.90;;;;;;5088216;28;20218;-62
2023/11/05 03:13:57;;;;;;;3.40;1.30;;;10.40;99.90;;;;;;5087020;28;20602;-64
2023/11/05 03:16:23;;;;;;;4.90;1.70;;;10.40;99.90;;;;;;5086056;28;20187;-63
2023/11/05 03:18:48;;;;;;;3.37;1.10;;;10.40;99.90;;;;;;5086197;28;20470;-63
2023/11/05 03:21:15;;;;;;;5.03;1.50;;;10.30;99.90;;;;;;5087194;28;20287;-64
2023/11/05 03:23:41;;;;;;;3.80;2.03;;;10.40;99.90;;;;;;5087208;28;20291;-64
2023/11/05 03:26:07;;;;;;;3.07;1.30;;;10.40;99.90;;;;;;5087161;28;20427;-64
2023/11/05 03:28:32;;;;;;;3.67;1.70;;;10.30;99.90;;;;;;5088331;28;20419;-64
2023/11/05 03:30:58;;;;;;;3.83;1.83;;;10.40;99.90;;;;;;5086686;28;20229;-63
2023/11/05 03:33:24;;;;;;;2.87;1.30;;;10.50;99.90;;;;;;5087268;28;20407;-63
2023/11/05 03:35:50;;;;;;;1.67;1.10;;;10.40;99.90;;;;;;5087008;28;20726;-62
2023/11/05 03:38:16;;;;;;;3.33;1.20;;;10.40;99.90;;;;;;5086716;28;20528;-62
2023/11/05 03:40:42;;;;;;;4.73;1.13;;;10.40;99.90;;;;;;5085502;28;20418;-64
2023/11/05 03:43:08;;;;;;;2.23;1.20;;;10.40;99.90;;;;;;5086031;28;20182;-63
2023/11/05 03:45:34;;;;;;;2.20;1.27;;;10.40;99.90;;;;;;5087545;28;20650;-64
2023/11/05 03:47:59;;;;;;;3.67;1.47;;;10.50;99.90;;;;;;5090600;28;20426;-64
2023/11/05 03:50:28;;;;;;;1.90;1.27;;;10.40;99.90;;;;;;5086912;28;20512;-63
2023/11/05 03:52:54;;;;;;;5.70;1.30;;;10.50;99.90;;;;;;5085788;28;20211;-63
2023/11/05 03:55:20;;;;;;;2.37;1.30;;;10.40;99.90;;;;;;5086274;28;21210;-64
2023/11/05 03:57:46;;;;;;;1.97;1.27;;;10.40;99.90;;;;;;5090090;28;20476;-64
2023/11/05 04:00:12;;;;;;;4.53;1.27;;;10.40;99.90;;;;;;5090469;28;20176;-63
2023/11/05 04:02:38;;;;;;;4.17;1.70;;;10.40;99.90;;;;;;5091174;28;20270;-64
2023/11/05 04:05:04;;;;;;;3.83;1.30;;;10.40;99.90;;;;;;5089689;28;20537;-63
2023/11/05 04:07:29;;;;;;;2.50;1.20;;;10.40;99.90;;;;;;5091079;28;20728;-64
2023/11/05 04:09:55;;;;;;;2.60;1.30;;;10.40;99.90;;;;;;5091623;28;20441;-63
2023/11/05 04:12:22;;;;;;;2.70;1.30;;;10.40;99.90;;;;;;5090837;28;20291;-64
2023/11/05 04:14:48;;;;;;;3.00;1.23;;;10.40;99.90;;;;;;5089169;28;20484;-62
2023/11/05 04:17:14;;;;;;;2.60;1.30;;;10.50;99.90;;;;;;5089601;28;20460;-64
2023/11/05 04:19:39;;;;;;;3.47;1.20;;;10.50;99.90;;;;;;5090671;28;20529;-64
2023/11/05 04:22:05;;;;;;;3.00;1.20;;;10.60;99.90;;;;;;5089089;28;20648;-63
2023/11/05 04:24:30;;;;;;;1.93;0.70;;;10.60;99.90;;;;;;5090442;28;20189;-64
2023/11/05 04:26:57;;;;;;;1.33;1.10;;;10.60;99.90;;;;;;5090957;28;20584;-62
2023/11/05 04:29:23;;;;;;;2.87;0.87;;;10.60;99.90;;;;;;5090496;28;20237;-64
2023/11/05 04:31:48;;;;;;;3.13;1.20;;;10.60;99.90;;;;;;5089818;28;20430;-64
2023/11/05 04:34:14;;;;;;;2.00;0.93;;;10.60;99.90;;;;;;5086937;28;20203;-63
2023/11/05 04:36:43;;;;;;;1.60;0.83;;;10.50;99.90;;;;;;5089056;28;20263;-64
2023/11/05 04:39:09;;;;;;;1.47;0.97;;;10.60;99.90;;;;;;5089431;28;20172;-64
2023/11/05 04:41:34;;;;;;;2.77;1.03;;;10.60;99.90;;;;;;5090464;28;20440;-64
2023/11/05 04:44:00;;;;;;;1.90;0.97;;;10.60;99.90;;;;;;5088441;28;20183;-63
2023/11/05 04:46:27;;;;;;;2.83;1.10;;;10.70;99.90;;;;;;5089970;28;20651;-64
2023/11/05 04:48:52;;;;;;;1.80;0.70;;;10.70;99.90;;;;;;5094383;28;20229;-63
2023/11/05 04:51:18;;;;;;;2.00;1.80;;;10.70;99.90;;;;;;5089258;28;20530;-63
2023/11/05 04:53:44;;;;;;;0.80;0.40;;;10.70;99.90;;;;;;5089772;28;20272;-63
2023/11/05 04:56:15;;;;;;;2.00;1.00;;;10.70;99.90;;;;;;5090203;28;20188;-63
2023/11/05 04:58:40;;;;;;;1.23;0.50;;;10.80;99.90;;;;;;5089134;28;20212;-62
2023/11/05 05:01:06;;;;;;;3.03;0.77;;;10.80;99.90;;;;;;5093205;28;20425;-64
2023/11/05 05:03:33;;;;;;;1.00;0.70;;;10.80;99.90;;;;;;5088457;28;20188;-63
2023/11/05 05:05:59;;;;;;;1.30;0.87;;;10.80;99.90;;;;;;5089988;28;20479;-64
2023/11/05 05:08:26;;;;;;;1.97;0.90;;;10.80;99.90;;;;;;5087884;28;20428;-63
2023/11/05 05:10:51;;;;;;;2.03;0.53;;;10.80;99.90;;;;;;5090284;28;20429;-64
2023/11/05 05:13:17;;;;;;;2.40;0.70;;;10.80;99.90;;;;;;5089846;28;20419;-62
2023/11/05 05:15:43;;;;;;;0.70;0.50;;;10.90;99.90;;;;;;5090574;28;20587;-63
2023/11/05 05:18:08;;;;;;;0.80;0.60;;;10.90;99.90;;;;;;5090606;28;20204;-64
2023/11/05 05:20:34;;;;;;;1.03;0.60;;;10.90;99.90;;;;;;5093345;28;20298;-62
2023/11/05 05:23:00;;;;;;;1.87;0.80;;;10.90;99.90;;;;;;5089574;28;20183;-63
2023/11/05 05:25:26;;;;;;;2.93;0.80;;;10.90;99.90;;;;;;5089296;28;20435;-63
2023/11/05 05:27:51;;;;;;;1.40;0.50;;;10.90;99.90;;;;;;5089964;28;20223;-63
2023/11/05 05:30:18;;;;;;;1.23;0.60;;;10.90;99.90;;;;;;5088950;28;20195;-64
2023/11/05 05:32:44;;;;;;;2.00;0.73;;;10.90;99.90;;;;;;5089722;28;20827;-63
2023/11/05 05:35:10;;;;;;;1.00;0.80;;;10.90;99.90;;;;;;5089543;28;20434;-63
2023/11/05 05:37:36;;;;;;;1.23;0.60;;;10.90;99.90;;;;;;5088633;28;20891;-62
2023/11/05 05:40:04;;;;;;;0.90;0.60;;;10.90;99.90;;;;;;5089027;28;20427;-62
2023/11/05 05:42:30;;;;;;;2.30;0.60;;;10.90;99.90;;;;;;5088394;28;20265;-64
2023/11/05 05:44:56;;;;;;;2.20;1.00;;;10.90;99.90;;;;;;5088641;28;20435;-62
2023/11/05 05:47:22;;;;;;;0.80;0.60;;;10.90;99.90;;;;;;5089714;28;20437;-64
2023/11/05 05:49:49;;;;;;;4.03;0.80;;;11.00;99.90;;;;;;5089438;28;20176;-63
2023/11/05 05:52:15;;;;;;;1.70;0.60;;;10.90;99.90;;;;;;5089221;28;20492;-64
2023/11/05 05:54:41;;;;;;;0.93;0.60;;;10.90;99.90;;;;;;5085250;28;21379;-62
2023/11/05 05:57:07;;;;;;;0.90;0.50;;;10.90;99.90;;;;;;5071662;28;20466;-63
2023/11/05 05:59:32;;;;;;;0.90;0.50;;;10.90;99.90;;;;;;5089480;28;20635;-62
2023/11/05 06:01:59;;;;;;;1.33;0.40;;;11.00;99.90;;;;;;5086918;28;20271;-64
2023/11/05 06:04:25;;;;;;;0.93;0.40;;;11.00;99.90;;;;;;5088558;28;20191;-64
2023/11/05 06:06:51;;;;;;;0.70;0.60;;;11.00;99.90;;;;;;5087028;28;20514;-64
2023/11/05 06:09:20;;;;;;;0.90;0.60;;;11.00;99.90;;;;;;5073991;28;20437;-64
2023/11/05 06:11:47;;;;;;;1.03;0.47;;;11.00;99.90;;;;;;5089143;28;20664;-62
2023/11/05 06:14:13;;;;;;;1.80;0.53;;;11.00;99.90;;;;;;5088091;28;20437;-63
2023/11/05 06:16:38;;;;;;;0.57;0.40;;;11.00;99.90;;;;;;5088709;28;20495;-62
2023/11/05 06:19:04;;;;;;;1.83;0.50;;;11.00;99.90;;;;;;5089218;28;20426;-64
2023/11/05 06:21:30;;;;;;;0.77;0.40;;;11.00;99.90;;;;;;5088170;28;20185;-63
2023/11/05 06:23:56;;;;;;;0.60;0.40;;;11.00;99.90;;;;;;5088682;28;20426;-64
2023/11/05 06:26:24;;;;;;;1.13;0.53;;;11.00;99.90;;;;;;5088178;28;20194;-64
2023/11/05 06:28:49;;;;;;;0.70;0.50;;;11.00;99.90;;;;;;5088777;28;20199;-62
2023/11/05 06:31:16;;;;;;;1.07;0.60;;;11.00;99.90;;;;;;5087789;28;20434;-63
2023/11/05 06:33:42;;;;;;;1.70;0.40;;;11.10;99.90;;;;;;5089626;28;20426;-64
2023/11/05 06:36:08;;;;;;;0.93;0.50;;;11.10;99.90;;;;;;5089506;28;20429;-64
2023/11/05 06:38:33;;;;;;;1.73;0.47;;;10.90;99.90;;;;;;5088703;28;20326;-63
2023/11/05 06:40:59;;;;;;;0.70;0.40;;;11.00;99.90;;;;;;5089097;28;20431;-62
2023/11/05 06:43:25;;;;;;;1.10;0.40;;;11.00;99.90;;;;;;5088205;28;20181;-63
2023/11/05 06:45:50;;;;;;;1.20;0.60;;;11.00;99.90;;;;;;5087990;28;20544;-63
2023/11/05 06:48:16;;;;;;;1.27;0.60;;;11.00;99.90;;;;;;5089121;28;20203;-64
2023/11/05 06:50:42;;;;;;;0.70;0.43;;;11.00;99.90;;;;;;5087284;28;20219;-64
2023/11/05 06:53:07;;;;;;;0.70;0.40;;;11.00;99.90;;;;;;5085734;28;20353;-62
2023/11/05 06:55:33;;;;;;;1.23;0.40;;;11.00;99.90;;;;;;5088468;28;20182;-62
2023/11/05 06:57:59;;;;;;;1.13;0.53;;;11.00;99.90;;;;;;5091936;28;20212;-64
2023/11/05 07:00:26;;;;;;;0.50;0.30;;;11.10;99.90;;;;;;5088714;28;20188;-63
2023/11/05 07:02:51;;;;;;;1.17;0.60;;;11.10;99.90;;;;;;5085700;28;20433;-62
2023/11/05 07:05:17;;;;;;;0.70;0.40;;;11.10;99.90;;;;;;5086591;28;21371;-64
2023/11/05 07:07:43;;;;;;;1.83;0.60;;;11.00;99.90;;;;;;5053253;28;20768;-64
2023/11/05 07:10:09;;;;;;;0.80;0.40;;;11.00;99.90;;;;;;5088076;28;20184;-63
2023/11/05 07:12:35;;;;;;;1.80;0.47;;;11.00;99.90;;;;;;5088087;28;20205;-63
2023/11/05 07:15:01;;;;;;;1.73;0.50;;;11.00;99.90;;;;;;5090623;28;20427;-63
2023/11/05 07:17:28;;;;;;;0.80;0.40;;;11.00;99.90;;;;;;5087663;28;20645;-64
2023/11/05 07:19:53;;;;;;;0.70;0.50;;;11.00;99.90;;;;;;5088021;28;20981;-64
2023/11/05 07:22:19;;;;;;;0.60;0.30;;;11.00;99.90;;;;;;5090658;28;20422;-64
2023/11/05 07:24:45;;;;;;;1.80;0.60;;;11.00;99.90;;;;;;5088143;28;20267;-64
2023/11/05 07:27:11;;;;;;;1.17;0.50;;;11.10;99.90;;;;;;5087587;28;20425;-62
2023/11/05 07:29:37;;;;;;;0.60;0.40;;;11.10;99.90;;;;;;5083193;28;20868;-64
2023/11/05 07:32:03;;;;;;;0.60;0.37;;;11.10;99.90;;;;;;5084488;28;20184;-64
2023/11/05 07:34:29;;;;;;;2.03;0.60;;;11.00;99.90;;;;;;5087926;28;20768;-62
2023/11/05 07:36:56;;;;;;;1.10;0.60;;;11.00;99.90;;;;;;5089349;28;20429;-63
2023/11/05 07:39:21;;;;;;;0.60;0.50;;;11.00;99.90;;;;;;5092501;28;20213;-64
2023/11/05 07:41:47;;;;;;;1.30;0.50;;;10.90;99.90;;;;;;5089268;28;20842;-64
2023/11/05 07:44:13;;;;;;;0.70;0.40;;;10.90;99.90;;;;;;5090297;28;20246;-63
2023/11/05 07:46:38;;;;;;;0.70;0.50;;;11.00;99.90;;;;;;5089580;28;20195;-65
2023/11/05 07:49:05;;;;;;;0.80;0.40;;;11.00;99.90;;;;;;5072194;28;20200;-65
2023/11/05 07:51:31;;;;;;;0.70;0.50;;;11.00;99.90;;;;;;5091873;28;20897;-63
2023/11/05 07:53:59;;;;;;;0.60;0.40;;;11.00;99.90;;;;;;5090076;28;20445;-64
2023/11/05 07:56:25;;;;;;;1.50;0.33;;;11.00;99.90;;;;;;5091872;28;20199;-64
2023/11/05 07:58:50;;;;;;;0.60;0.33;;;11.00;99.90;;;;;;5091605;28;20808;-63
2023/11/05 08:01:16;;;;;;;0.87;0.40;;;11.10;99.90;;;;;;5092212;28;20481;-63
2023/11/05 08:03:42;;;;;;;0.60;0.40;;;11.10;99.90;;;;;;5091482;28;20176;-63
2023/11/05 08:06:08;;;;;;;0.57;0.40;;;11.10;99.90;;;;;;5089944;28;20989;-63
2023/11/05 08:08:34;;;;;;;0.70;0.50;;;11.10;99.90;;;;;;5091942;28;20180;-64
2023/11/05 08:11:00;;;;;;;0.77;0.50;;;11.20;99.90;;;;;;5090903;28;20422;-64
2023/11/05 08:13:25;;;;;;;3.10;0.60;;;11.20;99.90;;;;;;5093944;28;20425;-63
2023/11/05 08:15:51;;;;;;;1.00;0.60;;;11.10;99.90;;;;;;5089025;28;20868;-64
2023/11/05 08:18:18;;;;;;;0.60;0.40;;;11.10;99.90;;;;;;5090408;28;20204;-63
2023/11/05 08:20:44;;;;;;;0.50;0.40;;;11.20;99.90;;;;;;5091638;28;20424;-64
2023/11/05 08:23:10;;;;;;;0.83;0.40;;;11.20;99.90;;;;;;5093536;28;20425;-64
2023/11/05 08:25:35;;;;;;;1.33;0.50;;;11.20;99.90;;;;;;5091726;28;20418;-63
2023/11/05 08:28:01;;;;;;;0.70;0.47;;;11.20;99.90;;;;;;5090366;28;20186;-64
2023/11/05 08:30:26;;;;;;;0.60;0.50;;;11.30;99.90;;;;;;5089267;28;20175;-63
2023/11/05 08:32:54;;;;;;;0.53;0.53;;;11.30;99.90;;;;;;5090560;28;20194;-65
2023/11/05 08:35:20;;;;;;;0.73;0.50;;;11.30;99.90;;;;;;5090393;28;21003;-64
2023/11/05 08:37:47;;;;;;;0.60;0.50;;;11.20;99.90;;;;;;5088842;28;20477;-63
2023/11/05 08:40:15;;;;;;;1.53;0.87;;;11.30;99.90;;;;;;5088958;28;21056;-62
2023/11/05 08:42:42;;;;;;;0.50;0.50;;;11.30;99.90;;;;;;5084452;28;20480;-62
2023/11/05 08:45:08;;;;;;;0.83;0.67;;;11.30;99.90;;;;;;5053059;28;20583;-64
2023/11/05 08:47:35;;;;;;;1.17;0.70;;;11.30;99.90;;;;;;5086759;28;20553;-64
2023/11/05 08:50:03;;;;;;;0.70;0.60;;;11.30;99.90;;;;;;5086814;28;20466;-63
2023/11/05 08:52:31;;;;;;;1.47;0.67;;;11.30;99.90;;;;;;5087995;28;20468;-63
2023/11/05 08:54:59;;;;;;;0.70;0.70;;;11.30;99.90;;;;;;5086223;28;20972;-62
2023/11/05 08:57:25;;;;;;;0.80;0.80;;;11.20;99.90;;;;;;5089049;28;20477;-63
2023/11/05 08:59:51;;;;;;;0.57;0.50;;;11.20;99.90;;;;;;5093196;28;21066;-64
2023/11/05 09:02:16;;;;;;;0.77;0.67;;;11.20;99.90;;;;;;5089299;28;20449;-63
2023/11/05 09:04:42;;;;;;;1.70;0.87;;;11.20;99.90;;;;;;5088595;28;20246;-64
2023/11/05 09:07:10;;;;;;;1.00;0.60;;;11.20;99.90;;;;;;5086324;28;20207;-64
2023/11/05 09:09:37;;;;;;;0.80;0.70;;;11.20;99.90;;;;;;5089674;28;20219;-64
2023/11/05 09:12:03;;;;;;;1.13;0.67;;;11.30;99.90;;;;;;5088430;28;20780;-63
2023/11/05 09:14:29;;;;;;;1.80;0.90;;;11.30;99.90;;;;;;5088110;28;20459;-62
2023/11/05 09:16:55;;;;;;;0.90;0.90;;;11.30;99.90;;;;;;5090774;28;20464;-63
2023/11/05 09:19:20;;;;;;;1.70;1.00;;;11.30;99.90;;;;;;5088854;28;21393;-65
2023/11/05 09:21:46;;;;;;;2.60;0.87;;;11.40;99.90;;;;;;5093212;28;20245;-63
2023/11/05 09:24:12;;;;;;;1.20;1.03;;;11.40;99.90;;;;;;5088066;28;20255;-64
2023/11/05 09:26:38;;;;;;;1.60;1.27;;;11.40;99.90;;;;;;5089331;28;20752;-64
2023/11/05 09:29:04;;;;;;;1.90;1.20;;;11.40;99.90;;;;;;5088891;28;20223;-65
2023/11/05 09:31:31;;;;;;;1.10;1.00;;;11.40;99.90;;;;;;5087578;28;20197;-63
2023/11/05 09:33:56;;;;;;;1.20;1.10;;;11.40;99.90;;;;;;5088612;28;20465;-63
2023/11/05 09:36:22;;;;;;;1.63;1.53;;;11.40;99.90;;;;;;5087588;28;20448;-64
2023/11/05 09:38:47;;;;;;;1.60;1.50;;;11.40;99.90;;;;;;5088431;28;21178;-64
2023/11/05 09:41:17;;;;;;;1.53;1.40;;;11.40;99.90;;;;;;5084754;28;20206;-64
2023/11/05 09:43:50;;;;;;;1.73;1.63;;;11.40;99.90;;;;;;5086813;28;20365;-64
2023/11/05 09:46:16;;;;;;;2.20;2.00;;;11.50;99.90;;;;;;5089281;28;20469;-64
2023/11/05 09:48:42;;;;;;;2.57;1.67;;;11.60;99.90;;;;;;5087643;28;20465;-64
2023/11/05 09:51:13;;;;;;;1.87;1.70;;;11.50;99.90;;;;;;5088951;28;20234;-64
2023/11/05 09:53:39;;;;;;;2.70;2.20;;;11.50;99.90;;;;;;5087191;28;20477;-64
2023/11/05 09:56:06;;;;;;;2.33;2.13;;;11.50;99.90;;;;;;5086142;28;20872;-64
2023/11/05 09:58:32;;;;;;;2.00;1.80;;;11.50;99.90;;;;;;5087500;28;20231;-64
2023/11/05 10:00:57;;;;;;;4.10;2.10;;;11.50;99.90;;;;;;5085894;28;20671;-63
2023/11/05 10:03:25;;;;;;;4.03;2.50;;;11.50;99.90;;;;;;5083356;28;20900;-63
2023/11/05 10:05:53;;;;;;;3.50;2.13;;;11.50;99.90;;;;;;5087365;28;20212;-65
2023/11/05 10:08:22;;;;;;;2.27;2.07;;;11.60;99.90;;;;;;5085280;28;20442;-65
2023/11/05 10:10:48;;;;;;;2.30;2.10;;;11.70;99.90;;;;;;5085093;28;20438;-64
2023/11/05 10:13:15;;;;;;;2.70;1.80;;;11.70;99.90;;;;;;5085973;28;20574;-64
2023/11/05 10:15:42;;;;;;;2.53;1.73;;;11.80;99.90;;;;;;5087843;28;20688;-63
2023/11/05 10:18:19;;;;;;;2.00;1.60;;;11.80;99.90;;;;;;5087526;28;20534;-63
2023/11/05 10:20:55;;;;;;;2.17;1.80;;;11.80;99.90;;;;;;5088242;28;20517;-63
2023/11/05 10:23:22;;;;;;;2.13;1.93;;;11.90;99.90;;;;;;5086147;28;20449;-63
2023/11/05 10:25:50;;;;;;;1.77;1.63;;;11.80;99.90;;;;;;5085252;28;20442;-63
2023/11/05 10:28:18;;;;;;;2.43;2.03;;;11.80;99.90;;;;;;5084677;28;20442;-64
2023/11/05 10:30:46;;;;;;;1.90;1.63;;;11.70;99.90;;;;;;5085151;28;21405;-64
2023/11/05 10:33:13;;;;;;;2.03;1.80;;;11.70;99.90;;;;;;5087764;28;20433;-63
2023/11/05 10:35:40;;;;;;;3.33;1.87;;;11.80;99.90;;;;;;5086504;28;20513;-63
2023/11/05 10:38:08;;;;;;;1.50;1.40;;;11.80;99.90;;;;;;5087972;28;20515;-63
2023/11/05 10:40:34;;;;;;;3.40;1.73;;;11.70;99.90;;;;;;5086189;28;20446;-63
2023/11/05 10:43:00;;;;;;;1.80;1.70;;;11.70;99.90;;;;;;5086279;28;20503;-65
2023/11/05 10:45:26;;;;;;;5.40;1.67;;;11.70;99.90;;;;;;5085762;28;20453;-64
2023/11/05 10:47:52;;;;;;;1.97;1.77;;;11.60;99.90;;;;;;5086610;28;20934;-64
2023/11/05 10:50:26;;;;;;;1.83;1.50;;;11.60;99.90;;;;;;5084325;28;20449;-63
2023/11/05 10:52:56;;;;;;;1.53;1.10;;;11.40;99.90;;;;;;5085869;28;20887;-63
2023/11/05 10:55:33;;;;;;;5.53;1.63;;;11.40;99.90;;;;;;5085514;28;20450;-65
2023/11/05 10:57:59;;;;;;;2.00;1.30;;;11.40;99.90;;;;;;5088393;28;20472;-65
2023/11/05 11:00:25;;;;;;;2.10;1.03;;;11.40;99.90;;;;;;5086553;28;20457;-64
2023/11/05 11:02:53;;;;;;;0.80;0.80;;;11.40;99.90;;;;;;5087088;28;20469;-64
2023/11/05 11:05:42;;;;;;;1.50;0.90;;;11.40;99.90;;;;;;5086496;28;20219;-65
2023/11/05 11:08:16;;;;;;;1.30;1.07;;;11.40;99.90;;;;;;5074856;28;20596;-64
2023/11/05 11:10:45;;;;;;;1.17;0.80;;;11.40;99.90;;;;;;5080225;28;20477;-63
2023/11/05 11:13:11;;;;;;;1.10;0.83;;;11.40;99.90;;;;;;5077708;28;20537;-63
2023/11/05 11:15:37;;;;;;;1.23;0.80;;;11.50;99.90;;;;;;5080766;28;20441;-63
2023/11/05 11:18:03;;;;;;;2.23;1.27;;;11.50;99.90;;;;;;5053575;28;20580;-63
2023/11/05 11:20:32;;;;;;;2.83;1.40;;;11.40;99.90;;;;;;5076401;28;20462;-64
2023/11/05 11:23:05;;;;;;;2.70;1.37;;;11.50;99.90;;;;;;5080742;28;21135;-65
2023/11/05 11:25:34;;;;;;;3.03;1.33;;;11.50;99.90;;;;;;5080291;28;20450;-64
2023/11/05 11:28:00;;;;;;;1.37;1.27;;;11.50;99.90;;;;;;5080886;28;20442;-62
2023/11/05 11:30:26;;;;;;;1.50;1.20;;;11.60;99.90;;;;;;5079926;28;21159;-64
2023/11/05 11:32:55;;;;;;;1.70;1.30;;;11.50;99.90;;;;;;5063353;28;20544;-65
2023/11/05 11:35:21;;;;;;;2.30;1.53;;;11.50;99.90;;;;;;5081753;28;20494;-63
2023/11/05 11:37:46;;;;;;;3.40;1.50;;;11.50;99.90;;;;;;5080892;28;20654;-64
2023/11/05 11:40:13;;;;;;;1.93;1.37;;;11.50;99.90;;;;;;5082634;28;20545;-64
2023/11/05 11:42:39;;;;;;;2.00;1.50;;;11.60;99.90;;;;;;5081458;28;20207;-64
2023/11/05 11:45:06;;;;;;;1.70;1.60;;;11.60;99.90;;;;;;5085350;28;20446;-63
2023/11/05 11:47:33;;;;;;;1.60;1.50;;;11.60;99.90;;;;;;5078730;28;20757;-64
2023/11/05 11:50:05;;;;;;;2.50;1.50;;;11.70;99.90;;;;;;5081960;28;20856;-64
2023/11/05 11:52:44;;;;;;;2.73;1.80;;;11.70;99.90;;;;;;5080449;28;20489;-64
2023/11/05 11:55:10;;;;;;;2.73;2.03;;;11.70;99.90;;;;;;5082091;28;20448;-62
2023/11/05 11:57:36;;;;;;;2.07;1.50;;;11.60;99.90;;;;;;5084255;28;20554;-63
2023/11/05 12:00:03;;;;;;;2.53;1.70;;;11.50;99.90;;;;;;5083359;28;20216;-63
2023/11/05 12:02:29;;;;;;;2.27;1.47;;;11.40;99.90;;;;;;5081845;28;20208;-64
2023/11/05 12:04:57;;;;;;;2.20;1.60;;;11.40;99.90;;;;;;5079784;28;20466;-64
2023/11/05 12:07:23;;;;;;;1.67;1.57;;;11.40;99.90;;;;;;5080906;28;20443;-64
2023/11/05 12:09:52;;;;;;;2.70;1.73;;;11.40;99.90;;;;;;5080095;28;20477;-62
2023/11/05 12:12:19;;;;;;;3.80;1.70;;;11.40;99.90;;;;;;5073702;28;20441;-64
2023/11/05 12:14:44;;;;;;;2.20;1.47;;;11.40;99.90;;;;;;5077894;28;20859;-63
2023/11/05 12:17:11;;;;;;;2.30;1.63;;;11.40;99.90;;;;;;5080775;28;20476;-63
2023/11/05 12:19:36;;;;;;;4.73;1.77;;;11.30;99.90;;;;;;5081490;28;20341;-63
2023/11/05 12:22:03;;;;;;;3.07;1.53;;;11.30;99.90;;;;;;5083065;28;20549;-64
2023/11/05 12:24:30;;;;;;;6.80;1.63;;;11.20;99.90;;;;;;5082961;28;20227;-63
2023/11/05 12:26:56;;;;;;;1.57;1.47;;;11.20;99.90;;;;;;5085210;28;20561;-63
2023/11/05 12:29:22;;;;;;;1.87;1.73;;;11.20;99.90;;;;;;5087271;28;20473;-65
2023/11/05 12:31:48;;;;;;;2.07;1.73;;;11.30;99.90;;;;;;5087451;28;20215;-65
2023/11/05 12:34:13;;;;;;;1.70;1.30;;;11.20;99.90;;;;;;5089613;28;20456;-65
2023/11/05 12:36:43;;;;;;;1.27;1.17;;;11.20;99.90;;;;;;5090706;28;20224;-65
2023/11/05 12:39:08;;;;;;;5.37;3.63;;;11.30;99.90;;;;;;5090395;28;20208;-64
2023/11/05 12:41:34;;;;;;;1.40;1.10;;;11.30;99.90;;;;;;5085094;28;20458;-63
2023/11/05 12:44:00;;;;;;;2.03;1.40;;;11.20;99.90;;;;;;5088338;28;20212;-63